FCDMC ALERT System Data Display

74707 Spook Hill FRS
Impoundment Stage A2

Impoundment Stage A2
Date       Time        feet      cfs
02/08/2023 00:00:00    0.28        0
02/07/2023 18:00:00    0.28        0
02/07/2023 12:00:00    0.28        0
02/07/2023 06:00:00    0.28        0
02/07/2023 00:00:00    0.28        0
02/06/2023 18:00:00    0.28        0
02/06/2023 12:00:00    0.28        0
02/06/2023 06:00:00    0.28        0
02/06/2023 00:00:00    0.28        0
02/05/2023 12:00:00    0.28        0
02/05/2023 06:00:00    0.28        0
02/05/2023 00:00:00    0.28        0
02/04/2023 12:00:00    0.28        0
02/04/2023 06:00:00    0.28        0
02/04/2023 00:00:00    0.28        0
02/03/2023 12:00:00    0.28        0
02/03/2023 06:00:00    0.28        0
02/02/2023 18:00:00    0.28        0
02/02/2023 06:00:00    0.28        0
02/02/2023 00:00:00    0.28        0
02/01/2023 18:00:00    0.28        0
02/01/2023 12:00:00    0.28        0
02/01/2023 06:00:00    0.28        0
02/01/2023 00:00:00    0.28        0
01/31/2023 18:00:00    0.28        0
01/31/2023 12:00:00    0.28        0
01/31/2023 00:00:00    0.28        0
01/30/2023 06:00:00    0.28        0
01/30/2023 00:00:00    0.28        0
01/29/2023 18:00:00    0.28        0
01/28/2023 06:00:00    0.28        0
01/27/2023 12:00:00    0.28        0
01/27/2023 06:00:00    0.28        0
01/27/2023 00:00:00    0.28        0
01/26/2023 18:00:00    0.28        0
01/26/2023 12:00:00    0.28        0
01/26/2023 06:00:00    0.28        0
01/26/2023 00:00:00    0.28        0
01/25/2023 00:00:00    0.28        0
01/24/2023 12:00:00    0.28        0
01/24/2023 00:00:00    0.28        0
01/23/2023 12:00:00    0.28        0
01/23/2023 06:00:00    0.28        0
01/22/2023 18:00:00    0.28        0
01/22/2023 12:00:00    0.28        0
01/22/2023 06:00:00    0.28        0
01/22/2023 00:00:00    0.28        0
01/21/2023 12:00:00    0.28        0
01/21/2023 06:00:00    0.28        0
01/21/2023 05:57:42    0.28        0
01/20/2023 00:00:00    0.28        0
01/19/2023 18:00:00    0.28        0
01/19/2023 06:00:00    0.28        0
01/18/2023 12:00:00    0.28        0
01/18/2023 00:00:00    0.28        0
01/17/2023 12:00:00    0.28        0
01/17/2023 08:51:00    0.33        0
01/17/2023 08:45:00    0.43        0
01/17/2023 08:38:00    0.53        0
01/17/2023 08:31:00    0.63        0
01/17/2023 08:24:00    0.73        1
01/17/2023 08:17:00    0.83        3
01/17/2023 08:11:00    0.93       10
01/17/2023 08:03:00    1.03       19
01/17/2023 07:53:00    1.13       20
01/17/2023 07:41:00    1.23       21
01/17/2023 07:25:00    1.33       22
01/17/2023 07:08:00    1.43       22
01/17/2023 06:43:00    1.53       23
01/17/2023 06:00:00    1.63       24
01/17/2023 00:00:00    1.58       24
01/16/2023 18:00:00    1.53       23
01/16/2023 16:38:00    1.50       23
01/16/2023 14:58:00    1.40       22
01/16/2023 13:54:00    1.30       21
01/16/2023 13:22:00    1.20       21
01/16/2023 13:02:00    1.10       20
01/16/2023 12:47:00    1.00       19
01/16/2023 12:39:00    0.90        7
01/16/2023 12:33:00    0.80        2
01/16/2023 12:27:00    0.70        1
01/16/2023 12:21:00    0.60        0
01/16/2023 12:15:00    0.50        0
01/16/2023 12:09:00    0.38        0
01/16/2023 12:00:00    0.28        0
01/15/2023 12:00:00    0.28        0
01/15/2023 06:00:00    0.28        0
01/14/2023 18:00:00    0.28        0
01/14/2023 06:00:00    0.28        0
01/13/2023 06:00:00    0.28        0
01/12/2023 12:00:00    0.28        0
01/12/2023 06:00:00    0.28        0
01/12/2023 00:00:00    0.28        0
01/11/2023 12:00:00    0.28        0
01/11/2023 06:00:00    0.28        0
01/10/2023 06:00:00    0.28        0
01/09/2023 18:00:00    0.28        0
01/09/2023 06:00:00    0.28        0
01/08/2023 18:00:00    0.28        0
01/08/2023 12:00:00    0.28        0